createdAt,value
2023-07-30T00:01:43.044Z,19.39
2023-07-30T00:04:28.445Z,19.31
2023-07-30T00:07:14.069Z,19.27
2023-07-30T00:09:59.725Z,19.22
2023-07-30T00:12:45.361Z,19.18
2023-07-30T00:15:30.990Z,19.15
2023-07-30T00:18:16.911Z,19.12
2023-07-30T00:21:02.418Z,19.07
2023-07-30T00:23:47.978Z,19.04
2023-07-30T00:26:33.769Z,19.00
2023-07-30T00:29:19.583Z,18.96
2023-07-30T00:32:05.699Z,18.91
2023-07-30T00:34:51.460Z,18.88
2023-07-30T00:37:37.113Z,18.87
2023-07-30T00:40:22.686Z,18.86
2023-07-30T00:43:08.377Z,18.84
2023-07-30T00:45:54.255Z,18.82
2023-07-30T00:48:39.745Z,18.82
2023-07-30T00:51:26.193Z,18.82
2023-07-30T00:54:12.470Z,18.83
2023-07-30T00:56:58.518Z,18.81
2023-07-30T00:59:44.426Z,18.79
2023-07-30T01:02:30.716Z,18.76
2023-07-30T01:05:16.242Z,18.75
2023-07-30T01:08:01.814Z,18.74
2023-07-30T01:10:47.455Z,18.74
2023-07-30T01:13:34.743Z,18.71
2023-07-30T01:16:20.194Z,18.68
2023-07-30T01:19:06.946Z,18.64
2023-07-30T01:21:52.457Z,18.62
2023-07-30T01:24:37.885Z,18.60
2023-07-30T01:27:32.377Z,18.58
2023-07-30T01:30:23.983Z,18.57
2023-07-30T01:33:11.650Z,18.57
2023-07-30T01:35:59.510Z,18.52
2023-07-30T01:38:45.529Z,18.46
2023-07-30T01:41:31.045Z,18.42
2023-07-30T01:44:16.443Z,18.40
2023-07-30T01:47:01.703Z,18.42
2023-07-30T01:49:47.001Z,18.45
2023-07-30T01:52:32.401Z,18.50
2023-07-30T01:55:18.211Z,18.55
2023-07-30T01:58:04.298Z,18.59
2023-07-30T02:00:49.899Z,18.62
2023-07-30T02:03:35.591Z,18.63
2023-07-30T02:06:20.900Z,18.68
2023-07-30T02:09:06.311Z,18.70
2023-07-30T02:11:51.944Z,18.72
2023-07-30T02:14:37.580Z,18.72
2023-07-30T02:17:22.915Z,18.71
2023-07-30T02:20:09.285Z,18.68
2023-07-30T02:22:54.681Z,18.68
2023-07-30T02:25:40.129Z,18.68
2023-07-30T02:28:25.670Z,18.69
2023-07-30T02:31:11.112Z,18.68
2023-07-30T02:33:56.412Z,18.64
2023-07-30T02:36:41.827Z,18.58
2023-07-30T02:39:27.240Z,18.54
2023-07-30T02:42:12.617Z,18.49
2023-07-30T02:44:57.898Z,18.45
2023-07-30T02:47:43.987Z,18.45
2023-07-30T02:50:29.353Z,18.48
2023-07-30T02:53:14.933Z,18.50
2023-07-30T02:56:00.239Z,18.52
2023-07-30T02:58:45.689Z,18.52
2023-07-30T03:01:30.983Z,18.53
2023-07-30T03:04:16.392Z,18.52
2023-07-30T03:07:02.072Z,18.53
2023-07-30T03:09:48.014Z,18.49
2023-07-30T03:12:33.525Z,18.47
2023-07-30T03:15:18.843Z,18.47
2023-07-30T03:18:04.320Z,18.44
2023-07-30T03:20:49.977Z,18.44
2023-07-30T03:23:35.255Z,18.41
2023-07-30T03:26:20.750Z,18.39
2023-07-30T03:29:06.748Z,18.38
2023-07-30T03:31:52.148Z,18.38
2023-07-30T03:34:37.548Z,18.38
2023-07-30T03:37:22.960Z,18.38
2023-07-30T03:40:08.930Z,18.40
2023-07-30T03:42:54.822Z,18.39
2023-07-30T03:45:40.671Z,18.34
2023-07-30T03:48:26.329Z,18.31
2023-07-30T03:51:11.917Z,18.32
2023-07-30T03:53:57.878Z,18.33
2023-07-30T03:56:43.297Z,18.33
2023-07-30T03:59:29.911Z,18.37
2023-07-30T04:02:16.976Z,18.39
2023-07-30T04:05:02.421Z,18.43
2023-07-30T04:07:47.811Z,18.46
2023-07-30T04:10:33.797Z,18.49
2023-07-30T04:13:19.405Z,18.49
2023-07-30T04:16:05.112Z,18.51
2023-07-30T04:18:50.544Z,18.51
2023-07-30T04:21:36.271Z,18.49
2023-07-30T04:24:22.022Z,18.47
2023-07-30T04:27:07.726Z,18.47
2023-07-30T04:29:53.459Z,18.43
2023-07-30T04:32:39.076Z,18.41
2023-07-30T04:35:24.392Z,18.40
2023-07-30T04:38:10.513Z,18.39
2023-07-30T04:40:59.415Z,18.36
2023-07-30T04:43:45.342Z,18.34
2023-07-30T04:46:31.258Z,18.32
2023-07-30T04:49:17.947Z,18.32
2023-07-30T04:52:04.364Z,18.27
2023-07-30T04:54:49.799Z,18.24
2023-07-30T04:57:35.708Z,18.21
2023-07-30T05:00:21.387Z,18.14
2023-07-30T05:03:07.073Z,18.09
2023-07-30T05:05:52.822Z,18.05
2023-07-30T05:08:38.374Z,18.02
2023-07-30T05:11:23.811Z,17.96
2023-07-30T05:14:09.303Z,17.94
2023-07-30T05:16:54.943Z,17.91
2023-07-30T05:19:40.721Z,17.87
2023-07-30T05:22:26.609Z,17.83
2023-07-30T05:25:13.404Z,17.79
2023-07-30T05:27:59.299Z,17.77
2023-07-30T05:30:45.177Z,17.74
2023-07-30T05:33:31.182Z,17.68
2023-07-30T05:36:16.698Z,17.60
2023-07-30T05:39:02.347Z,17.54
2023-07-30T05:41:48.097Z,17.51
2023-07-30T05:44:33.628Z,17.44
2023-07-30T05:47:19.127Z,17.42
2023-07-30T05:50:05.149Z,17.41
2023-07-30T05:52:50.449Z,17.40
2023-07-30T05:55:36.072Z,17.39
2023-07-30T05:58:21.707Z,17.38
2023-07-30T06:01:07.196Z,17.37
2023-07-30T06:03:53.192Z,17.37
2023-07-30T06:06:38.497Z,17.38
2023-07-30T06:09:23.906Z,17.38
2023-07-30T06:12:09.693Z,17.37
2023-07-30T06:14:55.198Z,17.36
2023-07-30T06:17:40.943Z,17.35
2023-07-30T06:20:26.575Z,17.37
2023-07-30T06:23:12.017Z,17.38
2023-07-30T06:25:57.607Z,17.39
2023-07-30T06:28:43.178Z,17.40
2023-07-30T06:31:29.017Z,17.43
2023-07-30T06:34:14.642Z,17.47
2023-07-30T06:37:00.200Z,17.50
2023-07-30T06:39:45.557Z,17.56
2023-07-30T06:42:30.920Z,17.63
2023-07-30T06:45:16.672Z,17.69
2023-07-30T06:48:02.145Z,17.71
2023-07-30T06:50:47.741Z,17.75
2023-07-30T06:53:33.521Z,17.81
2023-07-30T06:56:18.799Z,17.84
2023-07-30T06:59:04.673Z,17.88
2023-07-30T07:01:50.193Z,17.92
2023-07-30T07:04:35.682Z,17.98
2023-07-30T07:07:21.794Z,18.03
2023-07-30T07:10:07.620Z,18.07
2023-07-30T07:12:53.113Z,18.12
2023-07-30T07:15:38.443Z,18.16
2023-07-30T07:18:23.916Z,18.22
2023-07-30T07:21:09.406Z,18.27
2023-07-30T07:23:55.138Z,18.36
2023-07-30T07:26:40.695Z,18.44
2023-07-30T07:29:26.349Z,18.53
2023-07-30T07:32:12.146Z,18.63
2023-07-30T07:34:57.810Z,18.68
2023-07-30T07:37:43.179Z,18.75
2023-07-30T07:40:29.152Z,18.83
2023-07-30T07:43:14.618Z,18.86
2023-07-30T07:46:00.199Z,18.92
2023-07-30T07:48:45.591Z,19.03
2023-07-30T07:51:30.851Z,19.16
2023-07-30T07:54:16.374Z,19.34
2023-07-30T07:57:01.818Z,19.48
2023-07-30T07:59:48.162Z,19.61
2023-07-30T08:02:35.358Z,19.68
2023-07-30T08:05:21.032Z,19.75
2023-07-30T08:08:06.708Z,19.80
2023-07-30T08:10:52.173Z,19.83
2023-07-30T08:13:37.785Z,19.87
2023-07-30T08:16:23.490Z,19.94
2023-07-30T08:19:08.986Z,19.99
2023-07-30T08:21:56.508Z,20.07
2023-07-30T08:24:41.938Z,20.13
2023-07-30T08:27:27.263Z,20.20
2023-07-30T08:30:13.556Z,20.32
2023-07-30T08:32:58.998Z,20.40
2023-07-30T08:35:44.507Z,20.42
2023-07-30T08:38:30.856Z,20.46
2023-07-30T08:41:16.833Z,20.55
2023-07-30T08:44:03.286Z,20.69
2023-07-30T08:46:48.977Z,20.77
2023-07-30T08:49:35.759Z,20.84
2023-07-30T08:52:23.305Z,20.98
2023-07-30T08:55:09.420Z,21.08
2023-07-30T08:57:55.897Z,21.13
2023-07-30T09:00:42.318Z,21.24
2023-07-30T09:03:29.203Z,21.35
2023-07-30T09:06:14.731Z,21.39
2023-07-30T09:09:00.122Z,21.36
2023-07-30T09:11:52.450Z,21.28
2023-07-30T09:14:37.793Z,21.31
2023-07-30T09:17:23.707Z,21.43
2023-07-30T09:20:09.474Z,21.59
2023-07-30T09:22:57.796Z,21.78
2023-07-30T09:25:43.611Z,21.99
2023-07-30T09:28:32.756Z,22.19
2023-07-30T09:31:22.761Z,22.31
2023-07-30T09:34:09.630Z,22.45
2023-07-30T09:36:55.984Z,22.57
2023-07-30T09:39:41.775Z,22.70
2023-07-30T09:42:31.434Z,22.80
2023-07-30T09:45:25.581Z,22.96
2023-07-30T09:48:11.412Z,23.05
2023-07-30T09:50:59.963Z,23.14
2023-07-30T09:53:45.598Z,23.21
2023-07-30T09:56:30.992Z,23.32
2023-07-30T09:59:16.574Z,23.37
2023-07-30T10:02:02.090Z,23.49
2023-07-30T10:04:52.060Z,23.59
2023-07-30T10:07:42.752Z,23.59
2023-07-30T10:10:30.044Z,23.59
2023-07-30T10:13:17.384Z,23.47
2023-07-30T10:16:03.357Z,23.24
2023-07-30T10:18:56.372Z,23.05
2023-07-30T10:21:43.699Z,22.88
2023-07-30T10:24:29.436Z,22.76
2023-07-30T10:27:25.810Z,22.72
2023-07-30T10:30:11.708Z,22.75
2023-07-30T10:32:57.003Z,22.75
2023-07-30T10:35:47.528Z,22.78
2023-07-30T10:38:35.614Z,22.93
2023-07-30T10:41:22.196Z,23.07
2023-07-30T10:44:07.831Z,23.11
2023-07-30T10:46:55.112Z,23.12
2023-07-30T10:49:45.101Z,23.12
2023-07-30T10:52:30.701Z,23.22
2023-07-30T10:55:16.423Z,23.42
2023-07-30T10:58:02.703Z,23.48
2023-07-30T11:00:50.378Z,23.60
2023-07-30T11:03:37.337Z,23.68
2023-07-30T11:06:24.941Z,23.61
2023-07-30T11:09:20.531Z,23.54
2023-07-30T11:12:10.812Z,23.62
2023-07-30T11:15:05.971Z,23.76
2023-07-30T11:17:53.654Z,23.84
2023-07-30T11:20:39.157Z,23.89
2023-07-30T11:23:24.923Z,23.99
2023-07-30T11:26:19.039Z,24.08
2023-07-30T11:29:21.290Z,24.25
2023-07-30T11:32:07.087Z,24.38
2023-07-30T11:34:56.365Z,24.50
2023-07-30T11:37:43.887Z,24.61
2023-07-30T11:40:30.495Z,24.66
2023-07-30T11:43:15.757Z,24.70
2023-07-30T11:46:11.807Z,24.73
2023-07-30T11:49:14.897Z,24.75
2023-07-30T11:52:07.079Z,24.67
2023-07-30T11:55:04.105Z,24.55
2023-07-30T11:57:50.144Z,24.46
2023-07-30T12:00:38.773Z,24.38
2023-07-30T12:03:27.793Z,24.48
2023-07-30T12:06:14.313Z,24.65
2023-07-30T12:09:00.121Z,24.71
2023-07-30T12:11:52.916Z,24.71
2023-07-30T12:14:55.294Z,24.70
2023-07-30T12:17:41.311Z,24.74
2023-07-30T12:20:29.242Z,24.63
2023-07-30T12:23:15.151Z,24.62
2023-07-30T12:26:00.724Z,24.79
2023-07-30T12:28:46.486Z,24.77
2023-07-30T12:31:32.124Z,24.56
2023-07-30T12:34:17.467Z,24.40
2023-07-30T12:37:03.001Z,24.28
2023-07-30T12:39:48.319Z,24.17
2023-07-30T12:42:34.036Z,24.08
2023-07-30T12:45:19.603Z,24.04
2023-07-30T12:48:08.823Z,24.05
2023-07-30T12:50:55.890Z,24.06
2023-07-30T12:53:42.957Z,23.99
2023-07-30T12:56:28.361Z,23.91
2023-07-30T12:59:13.998Z,23.75
2023-07-30T13:01:59.823Z,23.70
2023-07-30T13:04:45.547Z,23.62
2023-07-30T13:07:31.442Z,23.55
2023-07-30T13:10:17.159Z,23.39
2023-07-30T13:13:03.114Z,23.19
2023-07-30T13:15:48.570Z,23.12
2023-07-30T13:18:34.008Z,23.01
2023-07-30T13:21:19.679Z,22.84
2023-07-30T13:24:05.293Z,22.79
2023-07-30T13:26:51.074Z,22.75
2023-07-30T13:29:36.475Z,22.72
2023-07-30T13:32:21.959Z,22.70
2023-07-30T13:35:07.597Z,22.67
2023-07-30T13:37:53.244Z,22.62
2023-07-30T13:40:38.678Z,22.48
2023-07-30T13:43:24.189Z,22.38
2023-07-30T13:46:09.879Z,22.28
2023-07-30T13:48:55.294Z,22.15
2023-07-30T13:51:40.927Z,22.01
2023-07-30T13:54:26.934Z,21.95
2023-07-30T13:57:12.635Z,21.92
2023-07-30T13:59:58.292Z,21.92
2023-07-30T14:02:44.479Z,21.89
2023-07-30T14:05:30.235Z,21.80
2023-07-30T14:08:15.701Z,21.73
2023-07-30T14:11:02.172Z,21.68
2023-07-30T14:13:47.595Z,21.68
2023-07-30T14:16:33.982Z,21.73
2023-07-30T14:19:19.331Z,21.82
2023-07-30T14:22:05.158Z,21.93
2023-07-30T14:24:50.971Z,22.05
2023-07-30T14:27:36.545Z,22.26
2023-07-30T14:30:22.325Z,22.59
2023-07-30T14:33:08.666Z,22.87
2023-07-30T14:35:54.101Z,23.20
2023-07-30T14:38:39.710Z,23.40
2023-07-30T14:41:25.064Z,23.66
2023-07-30T14:44:10.612Z,23.94
2023-07-30T14:46:58.075Z,24.16
2023-07-30T14:49:44.705Z,24.37
2023-07-30T14:52:30.566Z,24.49
2023-07-30T14:55:16.019Z,24.58
2023-07-30T14:58:02.040Z,24.58
2023-07-30T15:00:47.613Z,24.57
2023-07-30T15:03:33.097Z,24.57
2023-07-30T15:06:20.197Z,24.65
2023-07-30T15:09:05.662Z,24.34
2023-07-30T15:11:51.065Z,24.07
2023-07-30T15:14:36.548Z,23.97
2023-07-30T15:17:22.036Z,23.86
2023-07-30T15:20:07.896Z,23.74
2023-07-30T15:22:53.354Z,23.61
2023-07-30T15:25:38.922Z,23.48
2023-07-30T15:28:25.357Z,23.49
2023-07-30T15:31:10.976Z,23.49
2023-07-30T15:33:56.607Z,23.48
2023-07-30T15:36:42.578Z,23.53
2023-07-30T15:39:28.458Z,23.48
2023-07-30T15:42:14.108Z,23.68
2023-07-30T15:44:59.656Z,23.74
2023-07-30T15:47:45.513Z,23.65
2023-07-30T15:50:31.295Z,23.59
2023-07-30T15:53:16.596Z,23.50
2023-07-30T15:56:06.185Z,23.49
2023-07-30T15:58:51.715Z,23.46
2023-07-30T16:01:37.314Z,23.50
2023-07-30T16:04:23.134Z,23.42
2023-07-30T16:07:10.935Z,23.38
2023-07-30T16:09:56.620Z,23.29
2023-07-30T17:02:49.902Z,21.15
2023-07-30T17:05:35.408Z,21.14
2023-07-30T17:08:20.746Z,21.06
2023-07-30T17:11:08.093Z,20.98
2023-07-30T17:13:55.390Z,20.95
2023-07-30T17:16:43.606Z,20.96
2023-07-30T17:19:29.723Z,20.97
2023-07-30T17:22:15.399Z,20.98
2023-07-30T17:25:02.021Z,20.97
2023-07-30T17:27:47.805Z,20.94
2023-07-30T17:30:34.992Z,20.95
2023-07-30T17:33:20.576Z,20.93
2023-07-30T17:36:09.320Z,20.92
2023-07-30T17:38:54.873Z,20.90
2023-07-30T17:41:40.371Z,20.90
2023-07-30T17:44:25.796Z,20.89
2023-07-30T17:47:11.413Z,20.80
2023-07-30T17:49:57.412Z,20.74
2023-07-30T17:52:43.070Z,20.70
2023-07-30T17:55:28.514Z,20.68
2023-07-30T17:58:14.424Z,20.65
2023-07-30T18:01:06.503Z,20.64
2023-07-30T18:03:52.301Z,20.64
2023-07-30T18:06:37.937Z,20.61
2023-07-30T18:09:23.727Z,20.55
2023-07-30T18:12:09.558Z,20.49
2023-07-30T18:14:55.186Z,20.47
2023-07-30T18:17:40.969Z,20.40
2023-07-30T18:20:26.232Z,20.35
2023-07-30T18:23:11.793Z,20.31
2023-07-30T18:25:57.299Z,20.20
2023-07-30T18:28:42.835Z,20.12
2023-07-30T18:31:28.540Z,20.02
2023-07-30T18:34:14.001Z,19.93
2023-07-30T18:37:01.561Z,19.80
2023-07-30T18:39:46.830Z,19.70
2023-07-30T18:42:33.267Z,19.61
2023-07-30T18:45:19.152Z,19.50
2023-07-30T18:48:04.802Z,19.46
2023-07-30T18:50:52.512Z,19.42
2023-07-30T18:53:38.701Z,19.36
2023-07-30T18:56:24.077Z,19.31
2023-07-30T18:59:09.818Z,19.27
2023-07-30T19:01:55.764Z,19.22
2023-07-30T19:04:41.224Z,19.17
2023-07-30T19:07:26.733Z,19.15
2023-07-30T19:10:14.813Z,19.11
2023-07-30T19:13:00.320Z,19.08
2023-07-30T19:15:47.442Z,19.06
2023-07-30T19:18:33.974Z,19.03
2023-07-30T19:21:20.180Z,18.99
2023-07-30T19:24:07.091Z,18.95
2023-07-30T19:26:53.357Z,18.88
2023-07-30T19:29:40.463Z,18.86
2023-07-30T19:32:26.619Z,18.73
2023-07-30T19:35:12.435Z,18.56
2023-07-30T19:37:58.788Z,18.42
2023-07-30T19:40:44.289Z,18.32
2023-07-30T19:43:31.147Z,18.24
2023-07-30T19:46:17.419Z,18.19
2023-07-30T19:49:03.570Z,18.17
2023-07-30T19:51:49.205Z,18.19
2023-07-30T19:54:34.889Z,18.20
2023-07-30T19:57:20.264Z,18.20
2023-07-30T20:00:06.382Z,18.19
2023-07-30T20:02:54.828Z,18.19
2023-07-30T20:05:40.391Z,18.19
2023-07-30T20:08:25.997Z,18.19
2023-07-30T20:11:11.564Z,18.15
2023-07-30T20:13:56.978Z,18.09
2023-07-30T20:16:42.930Z,18.04
2023-07-30T20:19:28.491Z,17.99
2023-07-30T20:22:15.122Z,17.96
2023-07-30T20:25:00.477Z,17.90
2023-07-30T20:27:45.951Z,17.86
2023-07-30T20:30:36.244Z,17.80
2023-07-30T20:33:22.379Z,17.78
2023-07-30T20:36:08.184Z,17.75
2023-07-30T20:38:53.901Z,17.70
2023-07-30T20:41:39.929Z,17.67
2023-07-30T20:44:25.441Z,17.61
2023-07-30T20:47:11.124Z,17.54
2023-07-30T20:49:56.769Z,17.52
2023-07-30T20:52:46.718Z,17.47
2023-07-30T20:55:33.516Z,17.42
2023-07-30T20:58:21.335Z,17.38
2023-07-30T21:01:07.286Z,17.32
2023-07-30T21:03:52.888Z,17.30
2023-07-30T21:06:38.579Z,17.26
2023-07-30T21:09:24.780Z,17.22
2023-07-30T21:12:10.732Z,17.18
2023-07-30T21:14:56.171Z,17.15
2023-07-30T21:17:41.865Z,17.13
2023-07-30T21:20:27.256Z,17.10
2023-07-30T21:23:12.751Z,17.08
2023-07-30T21:25:58.180Z,17.04
2023-07-30T21:28:43.619Z,17.00
2023-07-30T21:31:29.164Z,16.96
2023-07-30T21:34:14.532Z,16.90
2023-07-30T21:36:59.906Z,16.81
2023-07-30T21:39:45.517Z,16.74
2023-07-30T21:42:32.387Z,16.70
2023-07-30T21:45:18.045Z,16.67
2023-07-30T21:48:03.512Z,16.66
2023-07-30T21:51:05.124Z,16.62
2023-07-30T21:53:51.071Z,16.60
2023-07-30T21:56:36.793Z,16.57
2023-07-30T21:59:22.713Z,16.51
2023-07-30T22:02:08.263Z,16.49
2023-07-30T22:04:53.576Z,16.45
2023-07-30T22:07:39.109Z,16.39
2023-07-30T22:10:24.508Z,16.28
2023-07-30T22:13:14.512Z,16.20
2023-07-30T22:16:00.220Z,16.12
2023-07-30T22:18:45.808Z,16.00
2023-07-30T22:21:31.290Z,15.93
2023-07-30T22:24:16.752Z,15.90
2023-07-30T22:27:02.011Z,15.93
2023-07-30T22:29:47.701Z,15.94
2023-07-30T22:32:33.045Z,15.97
2023-07-30T22:35:18.445Z,15.96
2023-07-30T22:38:04.020Z,15.92
2023-07-30T22:40:49.450Z,15.83
2023-07-30T22:43:34.932Z,15.72
2023-07-30T22:46:20.408Z,15.60
2023-07-30T22:49:05.895Z,15.46
2023-07-30T22:51:51.528Z,15.36
2023-07-30T22:54:36.883Z,15.32
2023-07-30T22:57:22.392Z,15.17
2023-07-30T23:00:08.493Z,14.99
2023-07-30T23:02:54.581Z,14.92
2023-07-30T23:05:39.919Z,14.87
2023-07-30T23:08:25.494Z,14.85
2023-07-30T23:11:10.776Z,14.83
2023-07-30T23:13:56.219Z,14.78
2023-07-30T23:16:42.071Z,14.75
2023-07-30T23:19:28.062Z,14.72
2023-07-30T23:22:13.749Z,14.71
2023-07-30T23:24:59.191Z,14.66
2023-07-30T23:27:44.577Z,14.64
2023-07-30T23:30:30.338Z,14.69
2023-07-30T23:33:16.436Z,14.78
2023-07-30T23:36:09.096Z,14.82
2023-07-30T23:38:54.599Z,14.84
2023-07-30T23:41:40.161Z,14.82
2023-07-30T23:44:25.441Z,14.74
2023-07-30T23:47:11.053Z,14.72
2023-07-30T23:49:56.804Z,14.70
2023-07-30T23:52:42.092Z,14.71
2023-07-30T23:55:27.503Z,14.72
2023-07-30T23:58:12.899Z,14.73
